Time;durP1;ratioP1;P1;durP2;ratioP2;P2;SDS_P1;SDS_P2;PMS_P1;PMS_P2;Temp;Humidity;BMP_temperature;BMP_pressure;BME280_temperature;BME280_humidity;BME280_pressure;Samples;Min_cycle;Max_cycle;Signal;HPM_P1;HPM_P2
2022/01/29 00:00:15;;;;;;;48.75;30.05;;;;;;;-0.23;100.00;100178.11;1668095;85;21426;-96
2022/01/29 00:02:43;;;;;;;46.25;31.68;;;;;;;-0.22;100.00;100180.59;1668191;86;21102;-96
2022/01/29 00:05:10;;;;;;;48.13;30.40;;;;;;;-0.22;100.00;100176.76;1624402;87;21078;-96
2022/01/29 00:07:42;;;;;;;43.10;29.72;;;;;;;-0.21;100.00;100176.33;1621951;87;22048;-93
2022/01/29 00:10:10;;;;;;;50.80;31.85;;;;;;;-0.22;100.00;100179.32;1616994;88;21171;-95
2022/01/29 00:12:39;;;;;;;45.50;29.90;;;;;;;-0.20;100.00;100177.55;1616820;88;21027;-96
2022/01/29 00:15:08;;;;;;;46.68;29.10;;;;;;;-0.20;100.00;100179.28;1617053;88;21090;-96
2022/01/29 00:17:35;;;;;;;46.37;30.27;;;;;;;-0.20;100.00;100176.27;1620236;87;21577;-93
2022/01/29 00:20:04;;;;;;;49.85;30.32;;;;;;;-0.18;100.00;100171.08;1601569;87;21042;-94
2022/01/29 00:22:33;;;;;;;45.55;29.00;;;;;;;-0.17;100.00;100172.75;1670389;85;21121;-93
2022/01/29 00:25:00;;;;;;;40.52;27.73;;;;;;;-0.16;100.00;100167.56;1667830;86;21062;-92
2022/01/29 00:27:32;;;;;;;44.60;29.72;;;;;;;-0.15;100.00;100167.14;1667769;85;21094;-92
2022/01/29 00:29:58;;;;;;;45.28;29.60;;;;;;;-0.16;100.00;100166.28;1617135;88;21078;-95
2022/01/29 00:32:27;;;;;;;44.15;28.45;;;;;;;-0.17;100.00;100159.95;1616630;88;21039;-94
2022/01/29 00:34:54;;;;;;;44.18;29.35;;;;;;;-0.18;100.00;100160.84;1616921;88;21188;-94
2022/01/29 00:37:21;;;;;;;42.40;27.55;;;;;;;-0.20;100.00;100160.09;1623480;87;21082;-96
2022/01/29 00:39:48;;;;;;;41.90;27.77;;;;;;;-0.20;100.00;100158.35;1618790;87;21098;-96
2022/01/29 00:42:15;;;;;;;41.58;27.90;;;;;;;-0.20;100.00;100157.53;1617066;87;21549;-95
2022/01/29 00:44:43;;;;;;;48.78;29.72;;;;;;;-0.23;100.00;100162.29;1616653;88;21002;-95
2022/01/29 00:47:10;;;;;;;44.73;27.48;;;;;;;-0.24;100.00;100158.52;1616943;88;21144;-96
2022/01/29 00:49:38;;;;;;;42.67;27.77;;;;;;;-0.27;100.00;100150.52;1617078;87;21070;-95
2022/01/29 00:52:06;;;;;;;38.98;25.65;;;;;;;-0.27;100.00;100149.23;1616653;88;21503;-94
2022/01/29 00:54:32;;;;;;;41.00;26.77;;;;;;;-0.29;100.00;100151.47;1616872;88;21478;-95
2022/01/29 00:57:01;;;;;;;41.30;27.00;;;;;;;-0.29;100.00;100149.73;1616482;87;21173;-92
2022/01/29 00:59:29;;;;;;;39.23;27.80;;;;;;;-0.29;100.00;100147.17;1632823;86;21178;-93
2022/01/29 01:01:57;;;;;;;46.23;28.38;;;;;;;-0.26;100.00;100148.78;1625979;86;21115;-95
2022/01/29 01:04:24;;;;;;;45.20;27.82;;;;;;;-0.26;100.00;100146.22;1624402;87;21113;-92
2022/01/29 01:06:51;;;;;;;40.65;26.93;;;;;;;-0.28;100.00;100141.17;1624099;87;21144;-94
2022/01/29 01:09:18;;;;;;;47.17;28.85;;;;;;;-0.30;100.00;100138.28;1626183;86;21042;-95
2022/01/29 01:11:45;;;;;;;42.67;26.62;;;;;;;-0.32;100.00;100143.02;1624196;87;21354;-94
2022/01/29 01:14:12;;;;;;;39.53;26.42;;;;;;;-0.32;100.00;100144.72;1624031;87;21074;-93
2022/01/29 01:16:40;;;;;;;42.40;27.58;;;;;;;-0.35;100.00;100144.39;1624028;87;21072;-93
2022/01/29 01:19:06;;;;;;;45.50;27.77;;;;;;;-0.36;100.00;100144.45;1627658;86;21622;-95
2022/01/29 01:21:34;;;;;;;43.60;27.00;;;;;;;-0.36;100.00;100146.56;1624247;87;21029;-95
2022/01/29 01:24:01;;;;;;;42.03;26.57;;;;;;;-0.38;100.00;100141.97;1625438;86;21089;-96
2022/01/29 01:26:29;;;;;;;46.50;28.60;;;;;;;-0.39;100.00;100144.56;1624275;87;21551;-94
2022/01/29 01:28:56;;;;;;;41.68;27.75;;;;;;;-0.40;100.00;100138.63;1624105;87;21599;-95
2022/01/29 01:31:23;;;;;;;44.77;27.95;;;;;;;-0.39;100.00;100142.00;1624245;87;21078;-96
2022/01/29 01:33:51;;;;;;;44.08;27.50;;;;;;;-0.40;100.00;100139.08;1624513;87;21077;-95
2022/01/29 01:36:21;;;;;;;46.05;29.07;;;;;;;-0.41;100.00;100140.79;1624504;87;21159;-96
2022/01/29 01:39:00;;;;;;;43.35;28.52;;;;;;;-0.41;100.00;100142.06;1624794;87;21022;-95
2022/01/29 01:41:25;;;;;;;45.35;28.57;;;;;;;-0.41;100.00;100140.79;1613754;88;21050;-95
2022/01/29 01:43:51;;;;;;;41.63;27.62;;;;;;;-0.43;100.00;100137.45;1671210;84;21019;-95
2022/01/29 01:46:18;;;;;;;58.40;32.15;;;;;;;-0.45;100.00;100141.81;1668048;85;21038;-94
2022/01/29 01:48:45;;;;;;;63.25;33.10;;;;;;;-0.46;100.00;100143.97;1668304;86;21089;-95
2022/01/29 01:51:14;;;;;;;57.55;34.40;;;;;;;-0.45;100.00;100148.20;1668018;85;21493;-95
2022/01/29 01:53:41;;;;;;;49.00;30.20;;;;;;;-0.44;100.00;100151.12;1671652;85;21900;-94
2022/01/29 01:56:08;;;;;;;48.30;30.68;;;;;;;-0.43;100.00;100151.52;1667906;85;21058;-96
2022/01/29 01:58:35;;;;;;;47.38;29.15;;;;;;;-0.42;100.00;100148.53;1671434;85;21073;-95
2022/01/29 02:01:03;;;;;;;50.58;31.65;;;;;;;-0.42;100.00;100146.80;1668053;85;21153;-95
2022/01/29 02:03:30;;;;;;;44.35;28.80;;;;;;;-0.42;100.00;100145.52;1667771;85;22118;-95
2022/01/29 02:05:59;;;;;;;43.60;28.27;;;;;;;-0.41;100.00;100148.47;1667893;85;21465;-95
2022/01/29 02:08:26;;;;;;;44.38;28.90;;;;;;;-0.40;100.00;100147.58;1671405;85;21045;-95
2022/01/29 02:11:05;;;;;;;41.90;27.20;;;;;;;-0.39;100.00;100146.69;1668241;85;21100;-95
2022/01/29 02:13:33;;;;;;;41.33;27.48;;;;;;;-0.38;100.00;100147.08;1668181;85;21158;-95
2022/01/29 02:16:05;;;;;;;44.67;28.67;;;;;;;-0.37;100.00;100148.75;1667941;86;21584;-95
2022/01/29 02:18:32;;;;;;;40.67;25.57;;;;;;;-0.38;100.00;100150.92;1668130;85;21568;-95
2022/01/29 02:21:01;;;;;;;46.20;30.25;;;;;;;-0.37;100.00;100151.31;1668191;85;21034;-95
2022/01/29 02:23:28;;;;;;;45.00;28.42;;;;;;;-0.36;100.00;100148.30;1668311;86;21070;-93
2022/01/29 02:25:55;;;;;;;40.05;25.10;;;;;;;-0.37;100.00;100146.20;1668249;85;21138;-93
2022/01/29 02:28:25;;;;;;;40.80;25.17;;;;;;;-0.37;100.00;100151.31;1668101;86;21085;-92
2022/01/29 02:30:59;;;;;;;39.98;26.93;;;;;;;-0.37;100.00;100149.19;1668072;85;21157;-95
2022/01/29 02:33:26;;;;;;;40.40;26.82;;;;;;;-0.37;100.00;100151.31;1665350;85;21571;-95
2022/01/29 02:35:55;;;;;;;41.95;27.40;;;;;;;-0.35;100.00;100148.69;1668319;85;21113;-94
2022/01/29 02:38:25;;;;;;;36.38;25.25;;;;;;;-0.34;100.00;100146.06;1680163;82;21091;-96
2022/01/29 02:40:56;;;;;;;46.10;26.70;;;;;;;-0.36;100.00;100146.56;1683466;83;21165;-94
2022/01/29 02:43:32;;;;;;;44.88;29.25;;;;;;;-0.35;100.00;100145.67;1682621;82;21054;-96
2022/01/29 02:46:19;;;;;;;45.43;29.12;;;;;;;-0.34;100.00;100147.80;1681610;83;21103;-94
2022/01/29 02:48:36;;;;;;;55.23;33.15;;;;;;;-0.34;100.00;100148.63;1681054;84;21508;-94
2022/01/29 02:51:03;;;;;;;52.62;32.33;;;;;;;-0.33;100.00;100150.30;1684418;85;21838;-95
2022/01/29 02:53:31;;;;;;;47.05;30.55;;;;;;;-0.30;100.00;100153.64;1679575;85;21516;-93
2022/01/29 02:55:59;;;;;;;52.67;32.55;;;;;;;-0.28;100.00;100150.59;1678623;84;21078;-96
2022/01/29 02:58:28;;;;;;;51.28;31.55;;;;;;;-0.28;100.00;100156.98;1681994;83;21058;-92
2022/01/29 03:00:55;;;;;;;48.33;29.27;;;;;;;-0.29;100.00;100152.75;1679541;84;21110;-93
2022/01/29 03:03:22;;;;;;;43.20;27.42;;;;;;;-0.28;100.00;100148.03;1681317;82;21144;-93
2022/01/29 03:05:49;;;;;;;40.38;26.87;;;;;;;-0.25;100.00;100151.73;1669320;84;21066;-94
2022/01/29 03:08:16;;;;;;;42.48;28.50;;;;;;;-0.22;100.00;100152.91;1667855;85;21082;-94
2022/01/29 03:10:49;;;;;;;40.98;26.65;;;;;;;-0.21;100.00;100150.73;1668204;85;21058;-92
2022/01/29 03:13:16;;;;;;;40.58;27.93;;;;;;;-0.21;100.00;100147.72;1667754;85;21125;-95
2022/01/29 03:15:43;;;;;;;37.90;24.92;;;;;;;-0.19;100.00;100151.49;1667772;83;21465;-94
2022/01/29 03:18:11;;;;;;;41.18;27.17;;;;;;;-0.19;100.00;100148.94;1667800;85;21058;-95
2022/01/29 03:20:38;;;;;;;44.27;28.00;;;;;;;-0.18;100.00;100151.88;1667763;86;21050;-93
2022/01/29 03:23:05;;;;;;;42.38;27.15;;;;;;;-0.16;100.00;100152.66;1667853;86;21098;-94
2022/01/29 03:25:32;;;;;;;41.75;26.52;;;;;;;-0.14;100.00;100147.48;1671125;85;21141;-95
2022/01/29 03:28:00;;;;;;;41.77;27.20;;;;;;;-0.14;100.00;100155.16;1667790;86;21470;-96
2022/01/29 03:30:26;;;;;;;42.80;26.87;;;;;;;-0.13;100.00;100155.55;1667581;85;21090;-96
2022/01/29 03:32:53;;;;;;;40.10;26.37;;;;;;;-0.12;100.00;100154.20;1667647;85;21552;-92
2022/01/29 03:35:20;;;;;;;39.40;25.25;;;;;;;-0.10;100.00;100155.45;1667328;85;21134;-93
2022/01/29 03:37:47;;;;;;;37.45;25.37;;;;;;;-0.10;100.00;100165.69;1667882;85;21114;-93
2022/01/29 03:40:14;;;;;;;39.42;26.37;;;;;;;-0.11;100.00;100162.27;1671324;85;21070;-93
2022/01/29 03:42:58;;;;;;;40.30;25.45;;;;;;;-0.11;100.00;100158.89;1671404;85;21007;-93
2022/01/29 03:45:19;;;;;;;35.35;23.98;;;;;;;-0.08;100.00;100160.06;1665275;86;21018;-94
2022/01/29 03:47:44;;;;;;;37.03;24.92;;;;;;;-0.07;100.00;100160.43;1668244;85;21121;-93
2022/01/29 03:50:11;;;;;;;40.40;26.00;;;;;;;-0.10;100.00;100165.22;1617481;88;21077;-93
2022/01/29 03:52:39;;;;;;;36.90;24.60;;;;;;;-0.11;100.00;100170.41;1617983;88;21106;-93
2022/01/29 03:55:06;;;;;;;38.17;24.75;;;;;;;-0.12;100.00;100166.18;1622677;88;21130;-95
2022/01/29 03:57:34;;;;;;;38.85;25.68;;;;;;;-0.14;100.00;100165.40;1629555;86;21046;-94
2022/01/29 04:00:02;;;;;;;35.80;23.73;;;;;;;-0.15;100.00;100168.42;1616658;88;21168;-92
2022/01/29 04:02:31;;;;;;;38.67;26.07;;;;;;;-0.14;100.00;100170.52;1615261;88;21066;-93
2022/01/29 04:04:59;;;;;;;36.00;24.60;;;;;;;-0.15;100.00;100169.70;1668662;84;21150;-92
2022/01/29 04:07:26;;;;;;;37.03;24.37;;;;;;;-0.15;100.00;100165.86;1617685;88;21150;-91
2022/01/29 04:09:54;;;;;;;37.65;24.77;;;;;;;-0.16;100.00;100170.13;1616973;88;21117;-93
2022/01/29 04:12:24;;;;;;;39.78;25.80;;;;;;;-0.16;100.00;100164.19;1623011;87;21038;-92
2022/01/29 04:14:56;;;;;;;37.08;24.82;;;;;;;-0.16;100.00;100171.41;1624287;87;21125;-91
2022/01/29 04:17:22;;;;;;;33.28;23.38;;;;;;;-0.16;100.00;100175.24;1613699;88;21162;-91
2022/01/29 04:19:49;;;;;;;35.08;23.05;;;;;;;-0.12;100.00;100170.84;1672751;84;21077;-91
2022/01/29 04:22:16;;;;;;;33.75;23.22;;;;;;;-0.10;100.00;100176.74;1672302;84;21760;-91
2022/01/29 04:24:45;;;;;;;29.95;21.97;;;;;;;-0.09;100.00;100170.73;1672500;84;21701;-93
2022/01/29 04:27:18;;;;;;;34.88;24.47;;;;;;;-0.09;100.00;100173.75;1673138;85;21125;-92
2022/01/29 04:29:56;;;;;;;32.50;22.93;;;;;;;-0.09;100.00;100175.03;1671208;84;22059;-92
2022/01/29 04:32:33;;;;;;;36.95;24.52;;;;;;;-0.11;100.00;100178.91;1668729;84;21105;-90
2022/01/29 04:34:50;;;;;;;30.45;21.27;;;;;;;-0.10;100.00;100174.19;1653068;86;21660;-90
2022/01/29 04:37:18;;;;;;;31.23;21.90;;;;;;;-0.09;100.00;100180.16;1668755;86;21105;-92
2022/01/29 04:39:45;;;;;;;28.75;20.92;;;;;;;-0.09;100.00;100175.86;1671799;84;21123;-92
2022/01/29 04:42:11;;;;;;;35.45;23.95;;;;;;;-0.07;100.00;100175.78;1668863;86;21141;-93
2022/01/29 04:44:40;;;;;;;31.62;21.55;;;;;;;-0.06;100.00;100171.06;1668426;84;21050;-93
2022/01/29 04:47:07;;;;;;;31.40;22.52;;;;;;;-0.03;100.00;100180.73;1668938;84;21082;-91
2022/01/29 04:49:34;;;;;;;31.20;21.23;;;;;;;0.00;100.00;100178.53;1624795;88;21098;-89
2022/01/29 04:52:01;;;;;;;30.00;21.23;;;;;;;-0.01;100.00;100179.42;1625189;87;21078;-89
2022/01/29 04:54:29;;;;;;;32.60;22.32;;;;;;;0.02;100.00;100186.96;1624711;87;21158;-90
2022/01/29 04:56:56;;;;;;;28.12;21.05;;;;;;;0.04;100.00;100185.65;1624809;87;21050;-91
2022/01/29 04:59:23;;;;;;;31.85;21.50;;;;;;;0.05;100.00;100183.45;1625742;87;21130;-91
2022/01/29 05:01:50;;;;;;;29.32;20.35;;;;;;;0.03;100.00;100184.80;1624754;88;21093;-90
2022/01/29 05:04:18;;;;;;;30.05;20.82;;;;;;;0.04;100.00;100189.48;1624611;88;21098;-91
2022/01/29 05:06:45;;;;;;;30.60;21.90;;;;;;;0.06;100.00;100194.08;1624715;87;21167;-91
2022/01/29 05:09:12;;;;;;;29.55;19.87;;;;;;;0.10;100.00;100195.64;1663974;85;21568;-90
2022/01/29 05:11:42;;;;;;;28.07;20.27;;;;;;;0.11;100.00;100198.14;1651164;85;21073;-90
2022/01/29 05:14:16;;;;;;;30.72;22.17;;;;;;;0.16;100.00;100205.65;1630864;85;21106;-89
2022/01/29 05:17:07;;;;;;;35.75;25.48;;;;;;;0.18;100.00;100202.59;1648384;85;21073;-90
2022/01/29 05:27:28;;;;;;;37.23;24.72;;;;;;;0.27;100.00;100213.77;1644134;86;21102;-89
2022/01/29 05:30:03;;;;;;;44.10;28.92;;;;;;;0.29;100.00;100215.80;1656424;86;21139;-89
2022/01/29 05:32:31;;;;;;;46.58;28.80;;;;;;;0.31;100.00;100224.72;1660582;85;21550;-89
2022/01/29 05:34:58;;;;;;;41.02;27.75;;;;;;;0.30;100.00;100226.43;1652881;86;21015;-87
2022/01/29 05:37:25;;;;;;;46.33;28.12;;;;;;;0.31;100.00;100224.72;1660606;84;21060;-88
2022/01/29 05:39:52;;;;;;;48.63;27.80;;;;;;;0.33;100.00;100220.81;1683897;85;21677;-89
2022/01/29 05:42:19;;;;;;;39.92;26.07;;;;;;;0.33;100.00;100232.34;1631394;85;21097;-89
2022/01/29 05:44:46;;;;;;;35.60;25.90;;;;;;;0.32;100.00;100239.20;1658348;84;21161;-89
2022/01/29 05:47:13;;;;;;;42.60;27.98;;;;;;;0.30;100.00;100243.08;1638282;85;21092;-86
2022/01/29 05:49:40;;;;;;;39.67;26.40;;;;;;;0.33;100.00;100244.69;1654951;86;21083;-82
2022/01/29 05:52:07;;;;;;;40.65;29.05;;;;;;;0.35;100.00;100249.77;1711236;82;21042;-82
2022/01/29 05:54:34;;;;;;;42.67;27.37;;;;;;;0.48;100.00;100250.13;1708029;83;21042;-82
2022/01/29 05:57:02;;;;;;;55.60;31.93;;;;;;;0.78;100.00;100246.35;1701159;82;21926;-83
2022/01/29 05:59:31;;;;;;;45.65;27.62;;;;;;;1.03;100.00;100251.77;1701265;83;21038;-84
2022/01/29 06:01:58;;;;;;;43.30;28.45;;;;;;;1.22;100.00;100255.68;1701167;84;21137;-81
2022/01/29 06:04:24;;;;;;;47.08;29.07;;;;;;;1.40;100.00;100262.22;1701469;82;21097;-81
2022/01/29 06:06:52;;;;;;;57.27;30.77;;;;;;;1.55;100.00;100262.84;1701107;82;21165;-80
2022/01/29 06:09:19;;;;;;;52.53;30.88;;;;;;;1.68;100.00;100257.98;1698579;83;21105;-80
2022/01/29 06:11:46;;;;;;;52.40;28.90;;;;;;;1.77;100.00;100256.77;1696004;83;20957;-81
2022/01/29 06:14:13;;;;;;;42.95;27.17;;;;;;;1.85;100.00;100261.55;1696275;83;21119;-83
2022/01/29 06:16:40;;;;;;;40.03;25.97;;;;;;;1.87;100.00;100260.59;1695922;83;21088;-83
2022/01/29 06:19:07;;;;;;;38.25;27.20;;;;;;;1.84;100.00;100267.14;1696334;83;21107;-82
2022/01/29 06:21:35;;;;;;;36.58;26.70;;;;;;;1.67;100.00;100268.33;1696019;83;21159;-81
2022/01/29 06:24:02;;;;;;;41.28;26.33;;;;;;;1.44;100.00;100276.57;1696223;83;21009;-83
2022/01/29 06:26:31;;;;;;;37.03;26.73;;;;;;;1.24;100.00;100272.28;1696007;83;21001;-83
2022/01/29 06:28:59;;;;;;;35.65;25.10;;;;;;;1.08;100.00;100269.07;1676303;84;21076;-82
2022/01/29 06:31:26;;;;;;;38.02;24.75;;;;;;;0.96;100.00;100268.73;1696178;83;21064;-81
2022/01/29 06:33:53;;;;;;;39.25;28.62;;;;;;;0.87;100.00;100268.20;1696255;83;21201;-82
2022/01/29 06:36:20;;;;;;;41.83;28.05;;;;;;;0.83;100.00;100274.37;1695902;83;21412;-82
2022/01/29 06:38:47;;;;;;;37.00;25.88;;;;;;;0.79;100.00;100268.96;1676242;84;21049;-83
2022/01/29 06:41:14;;;;;;;35.92;25.43;;;;;;;0.74;100.00;100269.14;1695914;83;21127;-86
2022/01/29 06:43:41;;;;;;;29.32;22.10;;;;;;;0.73;100.00;100275.16;1696267;84;21444;-83
2022/01/29 06:46:08;;;;;;;28.55;20.95;;;;;;;0.73;100.00;100274.34;1696005;84;21312;-83
2022/01/29 06:48:35;;;;;;;30.62;21.48;;;;;;;0.72;100.00;100273.95;1680894;84;21454;-84
2022/01/29 06:51:02;;;;;;;32.35;22.85;;;;;;;0.71;100.00;100277.41;1678742;84;21030;-84
2022/01/29 06:53:29;;;;;;;29.23;20.57;;;;;;;0.71;100.00;100281.25;1690571;83;21098;-86
2022/01/29 06:55:56;;;;;;;25.92;19.23;;;;;;;0.70;100.00;100275.30;1693260;83;21023;-84
2022/01/29 06:58:23;;;;;;;25.62;19.45;;;;;;;0.73;100.00;100279.47;1681151;83;21117;-84
2022/01/29 07:00:50;;;;;;;25.57;19.00;;;;;;;0.76;100.00;100272.48;1624400;86;21110;-84
2022/01/29 07:03:17;;;;;;;24.82;20.10;;;;;;;0.84;100.00;100271.34;1671257;84;21528;-84
2022/01/29 07:05:44;;;;;;;28.77;18.82;;;;;;;0.91;100.00;100272.77;1684315;83;21052;-82
2022/01/29 07:08:12;;;;;;;25.30;19.62;;;;;;;1.00;100.00;100280.09;1664112;84;21745;-84
2022/01/29 07:10:45;;;;;;;27.25;20.17;;;;;;;1.06;100.00;100279.83;1672220;83;21298;-84
2022/01/29 07:13:12;;;;;;;26.52;19.45;;;;;;;1.11;100.00;100283.48;1667637;84;21098;-82
2022/01/29 07:15:39;;;;;;;24.47;18.52;;;;;;;1.16;100.00;100288.44;1672354;85;21782;-81
2022/01/29 07:18:06;;;;;;;25.55;19.45;;;;;;;1.19;100.00;100288.32;1674934;84;21059;-83
2022/01/29 07:20:35;;;;;;;28.02;21.37;;;;;;;1.24;100.00;100292.34;1644908;84;21118;-83
2022/01/29 07:23:06;;;;;;;30.65;21.37;;;;;;;1.23;100.00;100288.13;1654168;84;21526;-83
2022/01/29 07:25:32;;;;;;;31.00;21.87;;;;;;;1.23;100.00;100290.70;1677656;84;21098;-85
2022/01/29 07:27:59;;;;;;;34.53;22.10;;;;;;;1.24;100.00;100287.67;1642375;85;21101;-82
2022/01/29 07:30:28;;;;;;;31.90;21.73;;;;;;;1.24;100.00;100297.47;1688242;84;21079;-82
2022/01/29 07:32:55;;;;;;;31.52;21.45;;;;;;;1.25;100.00;100297.86;1699053;84;21078;-83
2022/01/29 07:35:22;;;;;;;33.20;23.32;;;;;;;1.29;100.00;100299.03;1701724;83;21137;-82
2022/01/29 07:37:49;;;;;;;28.60;20.35;;;;;;;1.32;100.00;100306.61;1701550;84;21541;-79
2022/01/29 07:40:16;;;;;;;32.85;22.32;;;;;;;1.35;100.00;100309.88;1701919;84;21090;-82
2022/01/29 07:42:43;;;;;;;32.30;22.65;;;;;;;1.39;100.00;100311.87;1687056;83;21070;-80
2022/01/29 07:45:11;;;;;;;35.50;22.77;;;;;;;1.45;100.00;100314.17;1663559;85;21062;-80
2022/01/29 07:47:38;;;;;;;31.97;21.80;;;;;;;1.45;100.00;100323.58;1699359;84;21512;-80
2022/01/29 07:50:06;;;;;;;32.35;22.30;;;;;;;1.42;100.00;100318.13;1671476;84;21018;-80
2022/01/29 07:52:35;;;;;;;29.98;21.37;;;;;;;1.38;100.00;100320.45;1680648;84;21066;-80
2022/01/29 07:55:04;;;;;;;32.30;21.93;;;;;;;1.38;100.00;100324.30;1680000;84;21085;-80
2022/01/29 07:57:32;;;;;;;31.45;21.12;;;;;;;1.42;100.00;100324.55;1666759;83;21108;-80
2022/01/29 07:59:59;;;;;;;33.53;23.05;;;;;;;1.43;100.00;100328.79;1698753;82;21138;-80
2022/01/29 08:02:28;;;;;;;32.40;21.37;;;;;;;1.47;100.00;100331.63;1665123;82;21362;-84
2022/01/29 08:05:02;;;;;;;29.98;21.12;;;;;;;1.49;100.00;100335.41;1670807;82;21069;-79
2022/01/29 08:07:34;;;;;;;30.68;21.10;;;;;;;1.48;100.00;100334.58;1660349;84;21631;-78
2022/01/29 08:10:03;;;;;;;30.72;20.30;;;;;;;1.45;100.00;100336.41;1698690;83;21034;-78
2022/01/29 08:12:35;;;;;;;30.92;21.02;;;;;;;1.44;100.00;100339.44;1675221;84;21557;-78
2022/01/29 08:15:09;;;;;;;28.35;19.52;;;;;;;1.47;100.00;100340.61;1685966;82;21139;-80
2022/01/29 08:17:37;;;;;;;;;;;;;;;1.50;100.00;100342.20;1666840;84;21053;-79
2022/01/29 08:20:05;;;;;;;27.42;18.15;;;;;;;1.54;100.00;100345.02;1672930;84;20156;-80
2022/01/29 08:22:33;;;;;;;26.33;17.77;;;;;;;1.55;100.00;100348.83;1634802;86;21097;-78
2022/01/29 08:25:02;;;;;;;24.05;17.05;;;;;;;1.54;100.00;100349.72;1659579;85;21252;-82
2022/01/29 08:27:29;;;;;;;23.67;16.62;;;;;;;1.51;100.00;100352.86;1615438;86;21072;-79
2022/01/29 08:29:58;;;;;;;26.82;17.05;;;;;;;1.49;100.00;100355.94;1650242;85;21062;-78
2022/01/29 08:32:25;;;;;;;23.05;16.30;;;;;;;1.48;100.00;100355.11;1641174;86;21098;-79
2022/01/29 08:34:56;;;;;;;30.08;18.30;;;;;;;1.63;100.00;100351.52;1647963;85;21102;-78
2022/01/29 08:37:24;;;;;;;24.00;16.05;;;;;;;1.84;100.00;100353.16;1678982;83;24935;-78
2022/01/29 08:39:51;;;;;;;26.80;16.27;;;;;;;1.97;100.00;100350.05;1670850;84;21034;-78
2022/01/29 08:42:19;;;;;;;24.98;16.20;;;;;;;1.98;100.00;100360.71;1642283;85;21105;-77
2022/01/29 08:44:47;;;;;;;24.02;16.97;;;;;;;1.93;100.00;100361.38;1637852;85;22198;-78
2022/01/29 08:47:14;;;;;;;26.45;15.32;;;;;;;1.86;100.00;100363.36;1653448;85;21133;-79
2022/01/29 08:49:42;;;;;;;26.02;15.53;;;;;;;1.89;100.00;100367.09;1663791;84;21140;-85
2022/01/29 08:52:09;;;;;;;19.40;12.58;;;;;;;1.92;100.00;100355.84;1641202;85;21046;-82
2022/01/29 08:54:37;;;;;;;15.75;10.95;;;;;;;1.84;100.00;100366.46;1650849;86;21600;-78
2022/01/29 08:57:05;;;;;;;15.05;10.35;;;;;;;1.73;100.00;100362.61;1627231;86;21620;-77
2022/01/29 08:59:32;;;;;;;13.05;9.85;;;;;;;1.64;100.00;100364.73;1626588;86;21132;-79
2022/01/29 09:02:00;;;;;;;13.50;10.25;;;;;;;1.58;100.00;100362.80;1626907;87;21115;-78
2022/01/29 09:04:27;;;;;;;15.10;9.53;;;;;;;1.54;100.00;100369.40;1637571;86;21083;-77
2022/01/29 09:06:54;;;;;;;11.78;9.38;;;;;;;1.50;100.00;100368.69;1616498;88;21094;-78
2022/01/29 09:09:25;;;;;;;13.22;8.53;;;;;;;1.47;100.00;100365.42;1682339;84;21054;-77
2022/01/29 09:11:51;;;;;;;10.63;8.20;;;;;;;1.50;100.00;100367.41;1639371;86;21089;-78
2022/01/29 09:14:20;;;;;;;8.98;7.55;;;;;;;1.48;100.00;100365.81;1696177;83;21161;-77
2022/01/29 09:16:49;;;;;;;11.55;7.90;;;;;;;1.40;100.00;100365.67;1703164;82;21116;-82
2022/01/29 09:19:16;;;;;;;9.10;7.60;;;;;;;1.35;100.00;100365.04;1657425;84;21860;-84
2022/01/29 09:21:44;;;;;;;9.65;7.72;;;;;;;1.34;100.00;100370.21;1660008;82;21027;-83
2022/01/29 09:24:11;;;;;;;7.90;7.05;;;;;;;1.30;100.00;100360.52;1662742;84;21034;-83
2022/01/29 09:26:39;;;;;;;9.70;7.37;;;;;;;1.24;100.00;100364.16;1654473;85;21826;-83
2022/01/29 09:29:06;;;;;;;8.15;7.17;;;;;;;1.23;100.00;100365.09;1650226;85;21213;-82
2022/01/29 09:31:37;;;;;;;9.63;7.53;;;;;;;1.29;100.00;100370.40;1654751;85;21078;-84
2022/01/29 09:34:07;;;;;;;8.95;7.17;;;;;;;1.29;100.00;100367.83;1631070;85;21042;-81
2022/01/29 09:36:34;;;;;;;8.55;7.10;;;;;;;1.30;100.00;100364.38;1643926;86;21068;-82
2022/01/29 09:39:02;;;;;;;9.40;7.10;;;;;;;1.34;100.00;100368.50;1658189;86;21805;-83
2022/01/29 09:41:31;;;;;;;9.13;7.72;;;;;;;1.37;100.00;100373.95;1657564;86;21583;-87
2022/01/29 09:43:59;;;;;;;9.10;6.53;;;;;;;1.37;100.00;100368.81;1657481;86;21074;-86
2022/01/29 09:46:30;;;;;;;8.68;6.83;;;;;;;1.36;100.00;100375.66;1657648;86;21007;-84
2022/01/29 09:48:59;;;;;;;9.88;8.23;;;;;;;1.34;100.00;100385.61;1657515;86;21121;-87
2022/01/29 09:51:27;;;;;;;11.12;8.00;;;;;;;1.34;100.00;100381.76;1659057;86;21845;-86
2022/01/29 09:53:54;;;;;;;14.07;8.73;;;;;;;1.33;100.00;100391.63;1657631;86;21046;-88
2022/01/29 09:56:21;;;;;;;9.80;7.95;;;;;;;1.31;100.00;100389.59;1659509;86;21069;-87
2022/01/29 09:58:49;;;;;;;9.88;8.00;;;;;;;1.32;100.00;100393.84;1665098;86;21133;-87
2022/01/29 10:01:17;;;;;;;9.48;7.70;;;;;;;1.24;100.00;100394.95;1638014;84;21160;-88
2022/01/29 10:04:00;;;;;;;10.03;7.80;;;;;;;1.22;100.00;100394.62;1630854;86;21815;-90
2022/01/29 10:06:28;;;;;;;8.95;6.28;;;;;;;1.22;100.00;100398.48;1637073;84;21137;-92
2022/01/29 10:08:55;;;;;;;7.95;5.37;;;;;;;1.16;100.00;100389.28;1639272;84;21488;-92
2022/01/29 10:11:25;;;;;;;7.40;5.85;;;;;;;1.11;100.00;100392.49;1652714;85;21122;-94
2022/01/29 10:14:02;;;;;;;7.63;6.47;;;;;;;1.06;100.00;100391.84;1657933;86;21659;-91
2022/01/29 10:16:31;;;;;;;6.75;5.15;;;;;;;1.05;100.00;100395.30;1606044;86;21387;-91
2022/01/29 10:19:06;;;;;;;7.60;6.30;;;;;;;1.01;100.00;100394.59;1617700;87;21181;-94
2022/01/29 10:21:48;;;;;;;7.33;5.12;;;;;;;1.02;100.00;100396.27;1618418;85;21137;-90
2022/01/29 10:24:21;;;;;;;6.67;5.72;;;;;;;1.03;100.00;100401.78;1628041;85;21047;-88
2022/01/29 10:26:51;;;;;;;8.03;6.58;;;;;;;1.05;100.00;100397.87;1684461;82;21016;-84
2022/01/29 10:29:26;;;;;;;5.47;4.90;;;;;;;1.08;100.00;100392.63;1713330;80;21137;-88
2022/01/29 10:31:57;;;;;;;7.50;5.85;;;;;;;1.13;100.00;100399.69;1731113;78;20929;-89
2022/01/29 10:41:24;;;;;;;8.70;5.42;;;;;;;1.14;100.00;100406.92;1736965;81;21060;-95
2022/01/29 10:46:53;;;;;;;7.25;5.83;;;;;;;1.10;100.00;100414.75;1737233;79;20994;-87
2022/01/29 10:49:32;;;;;;;5.20;3.95;;;;;;;1.13;100.00;100415.08;1735864;78;21084;-90
2022/01/29 10:55:28;;;;;;;7.10;6.22;;;;;;;1.10;100.00;100426.30;1673814;84;21025;-94
2022/01/29 10:57:55;;;;;;;5.78;4.70;;;;;;;1.08;100.00;100431.10;1674787;84;21168;-95
2022/01/29 11:00:31;;;;;;;7.92;6.47;;;;;;;1.06;100.00;100431.60;1678712;83;21609;-96
2022/01/29 11:02:57;;;;;;;6.60;5.65;;;;;;;1.02;100.00;100437.30;1721344;77;21047;-89
2022/01/29 11:05:29;;;;;;;4.58;4.00;;;;;;;0.99;100.00;100428.88;1764030;78;20936;-87
2022/01/29 11:07:56;;;;;;;6.92;5.78;;;;;;;0.92;100.00;100434.68;1767138;78;21021;-95
2022/01/29 11:10:25;;;;;;;5.22;3.35;;;;;;;0.87;100.00;100443.83;1820339;78;21770;-94
2022/01/29 11:12:54;;;;;;;6.17;4.67;;;;;;;0.83;100.00;100441.43;1792926;78;21065;-96
2022/01/29 11:15:23;;;;;;;6.90;5.97;;;;;;;0.81;100.00;100438.08;1777733;80;21014;-93
2022/01/29 11:17:51;;;;;;;6.30;4.30;;;;;;;0.80;100.00;100449.25;1773595;80;21022;-96
2022/01/29 11:20:19;;;;;;;6.00;4.80;;;;;;;0.74;100.00;100444.72;1783629;77;20998;-91
2022/01/29 11:22:49;;;;;;;7.08;5.05;;;;;;;0.73;100.00;100448.63;1805211;78;21586;-89
2022/01/29 11:25:32;;;;;;;6.28;4.90;;;;;;;0.71;100.00;100452.55;1763519;79;21029;31
2022/01/29 11:28:17;;;;;;;5.87;4.37;;;;;;;0.69;100.00;100455.61;1740391;80;20990;-92
2022/01/29 11:30:47;;;;;;;6.05;5.17;;;;;;;0.68;100.00;100456.95;1775755;79;21061;-90
2022/01/29 11:46:36;;;;;;;6.05;5.45;;;;;;;0.76;100.00;100463.45;1816580;78;22735;-83
2022/01/29 11:49:24;;;;;;;15.05;5.87;;;;;;;0.77;100.00;100467.70;1785535;80;21530;-82